Time;durP1;ratioP1;P1;durP2;ratioP2;P2;SDS_P1;SDS_P2;PMS_P1;PMS_P2;Temp;Humidity;BMP_temperature;BMP_pressure;BME280_temperature;BME280_humidity;BME280_pressure;Samples;Min_cycle;Max_cycle;Signal;HPM_P1;HPM_P2
2021/04/02 00:00:51;;;;;;;9.60;8.60;;;7.40;99.90;;;;;;5040468;28;20453;-83
2021/04/02 00:03:26;;;;;;;10.53;7.37;;;7.40;99.90;;;;;;5028145;28;20448;-84
2021/04/02 00:05:53;;;;;;;9.23;8.20;;;7.30;99.90;;;;;;5068462;28;20439;-83
2021/04/02 00:08:23;;;;;;;13.87;8.87;;;7.30;99.90;;;;;;5032838;28;20573;-83
2021/04/02 00:10:53;;;;;;;11.57;8.50;;;7.30;99.90;;;;;;5032260;28;20448;-83
2021/04/02 00:13:21;;;;;;;11.37;8.17;;;7.20;99.90;;;;;;5016348;28;20432;-83
2021/04/02 00:15:47;;;;;;;10.53;9.43;;;7.10;99.90;;;;;;5032727;28;20886;-84
2021/04/02 00:18:14;;;;;;;9.87;8.43;;;7.10;99.90;;;;;;5044077;28;20436;-84
2021/04/02 00:20:40;;;;;;;16.30;8.60;;;7.10;99.90;;;;;;5024901;28;20470;-84
2021/04/02 00:23:12;;;;;;;10.07;8.35;;;7.10;99.90;;;;;;5032333;28;20440;-84
2021/04/02 00:25:44;;;;;;;15.30;9.97;;;7.10;99.90;;;;;;5033324;28;20217;-84
2021/04/02 00:28:10;;;;;;;12.33;9.03;;;7.10;99.90;;;;;;5020624;28;20465;-84
2021/04/02 00:30:50;;;;;;;18.57;9.97;;;7.00;99.90;;;;;;5024114;28;20470;-84
2021/04/02 00:33:20;;;;;;;8.70;7.72;;;7.00;99.90;;;;;;5038805;28;20577;-83
2021/04/02 00:35:49;;;;;;;10.83;8.10;;;6.90;99.90;;;;;;5054592;28;20622;-83
2021/04/02 00:38:16;;;;;;;11.67;7.77;;;6.90;99.90;;;;;;5006240;28;20483;-84
2021/04/02 00:40:51;;;;;;;13.77;8.43;;;6.90;99.90;;;;;;5011004;28;20528;-87
2021/04/02 00:43:20;;;;;;;18.03;10.10;;;6.90;99.90;;;;;;5012877;28;20458;-87
2021/04/02 00:45:49;;;;;;;9.30;8.40;;;6.90;99.90;;;;;;5012963;28;20418;-87
2021/04/02 00:48:19;;;;;;;9.73;8.20;;;6.90;99.90;;;;;;4997479;28;20441;-88
2021/04/02 00:50:50;;;;;;;13.60;8.90;;;6.90;99.90;;;;;;4996644;28;20461;-87
2021/04/02 00:53:21;;;;;;;12.40;8.50;;;6.90;99.90;;;;;;4982207;28;20960;-87
2021/04/02 00:55:50;;;;;;;15.00;9.40;;;6.90;99.90;;;;;;5001937;28;20436;-87
2021/04/02 00:58:21;;;;;;;11.67;8.83;;;6.90;99.90;;;;;;4990224;28;20474;-88
2021/04/02 01:00:47;;;;;;;12.70;8.90;;;6.80;99.90;;;;;;5012615;28;20426;-86
2021/04/02 01:03:13;;;;;;;12.83;8.20;;;6.80;99.90;;;;;;5025521;28;20436;-87
2021/04/02 01:05:47;;;;;;;10.13;8.47;;;6.80;99.90;;;;;;5013532;28;20443;-88
2021/04/02 01:08:20;;;;;;;10.80;8.33;;;6.80;99.90;;;;;;5006230;28;20421;-87
2021/04/02 01:10:54;;;;;;;17.37;9.70;;;6.80;99.90;;;;;;5016911;28;20432;-89
2021/04/02 01:13:34;;;;;;;12.43;9.03;;;6.80;99.90;;;;;;5028117;28;20455;-88
2021/04/02 01:16:22;;;;;;;13.53;8.40;;;6.80;99.90;;;;;;5040011;28;20412;-88
2021/04/02 01:19:13;;;;;;;12.47;9.30;;;6.80;99.90;;;;;;5018205;28;20461;-89
2021/04/02 01:21:58;;;;;;;12.83;8.40;;;6.70;99.90;;;;;;5020398;28;20865;-89
2021/04/02 01:24:45;;;;;;;10.03;8.57;;;6.80;99.90;;;;;;4984975;28;20949;-88
2021/04/02 01:27:30;;;;;;;10.00;8.33;;;6.70;99.90;;;;;;5010140;28;20492;-88
2021/04/02 01:30:08;;;;;;;10.27;7.70;;;6.60;99.90;;;;;;4986340;28;20414;-88
2021/04/02 01:32:48;;;;;;;11.17;8.57;;;6.60;99.90;;;;;;5001604;28;20446;-90
2021/04/02 01:35:26;;;;;;;16.58;9.40;;;6.60;99.90;;;;;;5002586;28;20528;-88
2021/04/02 01:38:15;;;;;;;9.30;7.67;;;6.60;99.90;;;;;;5014739;28;20208;-89
2021/04/02 01:40:46;;;;;;;10.57;8.80;;;6.60;99.90;;;;;;5007865;28;20438;-89
2021/04/02 01:43:19;;;;;;;10.23;8.30;;;6.50;99.90;;;;;;5021098;28;20428;-89
2021/04/02 01:45:49;;;;;;;10.23;8.03;;;6.50;99.90;;;;;;5026023;28;20510;-89
2021/04/02 01:48:16;;;;;;;11.63;8.37;;;6.40;99.90;;;;;;5020606;28;20443;-88
2021/04/02 01:50:45;;;;;;;9.53;8.17;;;6.50;99.90;;;;;;5019839;28;20455;-88
2021/04/02 01:53:15;;;;;;;12.30;8.90;;;6.40;99.90;;;;;;5027540;28;20432;-89
2021/04/02 01:55:44;;;;;;;12.43;8.30;;;6.40;99.90;;;;;;5036261;28;20426;-87
2021/04/02 01:58:11;;;;;;;12.17;7.90;;;6.30;99.90;;;;;;5018251;28;20468;-88
2021/04/02 02:00:48;;;;;;;15.87;8.77;;;6.30;99.90;;;;;;5019735;28;20512;-87
2021/04/02 02:03:24;;;;;;;12.17;8.60;;;6.30;99.90;;;;;;5025625;28;20450;-88
2021/04/02 02:05:58;;;;;;;12.47;8.10;;;6.40;99.90;;;;;;4998657;28;20450;-88
2021/04/02 02:08:39;;;;;;;8.37;7.43;;;6.50;99.90;;;;;;4990599;28;20449;-88
2021/04/02 02:11:15;;;;;;;12.53;8.37;;;6.50;99.90;;;;;;4983737;28;20485;-87
2021/04/02 02:13:48;;;;;;;14.83;8.00;;;6.40;99.90;;;;;;4983343;28;20437;-88
2021/04/02 02:16:24;;;;;;;11.47;8.40;;;6.40;99.90;;;;;;5000296;28;20430;-89
2021/04/02 02:18:57;;;;;;;10.25;8.27;;;6.40;99.90;;;;;;5054540;28;20478;-88
2021/04/02 02:21:31;;;;;;;11.38;8.65;;;6.50;99.90;;;;;;5014176;28;20214;-86
2021/04/02 02:24:03;;;;;;;10.93;8.17;;;6.60;99.90;;;;;;4999607;28;20214;-89
2021/04/02 02:26:31;;;;;;;8.57;7.30;;;6.60;99.90;;;;;;4999561;28;20500;-88
2021/04/02 02:29:15;;;;;;;15.77;8.03;;;6.60;99.90;;;;;;5010341;28;20475;-87
2021/04/02 02:31:42;;;;;;;10.53;8.00;;;6.60;99.90;;;;;;5023506;28;20463;-88
2021/04/02 02:34:12;;;;;;;18.63;8.97;;;6.70;99.90;;;;;;5008801;28;20801;-88
2021/04/02 02:36:51;;;;;;;11.47;8.07;;;6.60;99.90;;;;;;5013625;28;20427;-88
2021/04/02 02:39:21;;;;;;;13.37;8.63;;;6.60;99.90;;;;;;5002106;28;20855;-88
2021/04/02 02:41:52;;;;;;;8.77;7.77;;;6.60;99.90;;;;;;4999273;28;20434;-89
2021/04/02 02:44:23;;;;;;;10.83;8.00;;;6.60;99.90;;;;;;5014350;28;20535;-88
2021/04/02 02:46:50;;;;;;;11.27;7.97;;;6.60;99.90;;;;;;5016835;28;20437;-89
2021/04/02 02:49:18;;;;;;;12.73;7.50;;;6.60;99.90;;;;;;5018541;28;20877;-88
2021/04/02 02:51:55;;;;;;;14.73;8.53;;;6.60;99.90;;;;;;5029138;28;20450;-89
2021/04/02 02:54:25;;;;;;;9.97;7.47;;;6.60;99.90;;;;;;5014372;28;20410;-87
2021/04/02 02:56:57;;;;;;;14.60;7.63;;;6.60;99.90;;;;;;4995492;28;20855;-88
2021/04/02 02:59:25;;;;;;;14.60;7.40;;;6.60;99.90;;;;;;5014325;28;20480;-86
2021/04/02 03:01:53;;;;;;;8.70;7.57;;;6.60;99.90;;;;;;5015340;28;20279;-86
2021/04/02 03:04:22;;;;;;;12.77;8.02;;;6.60;99.90;;;;;;5009863;28;20212;-86
2021/04/02 03:06:53;;;;;;;14.50;7.90;;;6.50;99.90;;;;;;5010006;28;20182;-88
2021/04/02 03:09:22;;;;;;;9.30;7.50;;;6.50;99.90;;;;;;4997846;28;20442;-88
2021/04/02 03:11:53;;;;;;;11.60;7.85;;;6.50;99.90;;;;;;5002898;28;20456;-87
2021/04/02 03:14:21;;;;;;;14.67;8.30;;;6.50;99.90;;;;;;4981976;28;20183;-89
2021/04/02 03:16:57;;;;;;;16.83;9.00;;;6.50;99.90;;;;;;4982108;28;20924;-88
2021/04/02 03:19:26;;;;;;;10.90;8.40;;;6.60;99.90;;;;;;4997993;28;20431;-89
2021/04/02 03:22:08;;;;;;;13.15;7.35;;;6.50;99.90;;;;;;5002702;28;20444;-88
2021/04/02 03:24:47;;;;;;;10.33;8.43;;;6.60;99.90;;;;;;4999983;28;20184;-87
2021/04/02 03:27:21;;;;;;;14.90;9.33;;;6.60;99.90;;;;;;5022438;28;20505;-87
2021/04/02 03:29:49;;;;;;;13.00;8.80;;;6.60;99.90;;;;;;5006841;28;20941;-85
2021/04/02 03:32:22;;;;;;;18.83;8.90;;;6.60;99.90;;;;;;4982666;28;20247;-86
2021/04/02 03:34:52;;;;;;;10.77;8.68;;;6.60;99.90;;;;;;5040082;28;20602;-85
2021/04/02 03:37:22;;;;;;;14.30;8.90;;;6.70;99.90;;;;;;4998331;28;20623;-85
2021/04/02 03:39:57;;;;;;;16.50;9.93;;;6.70;99.90;;;;;;5022378;28;20826;-85
2021/04/02 03:42:26;;;;;;;16.30;9.03;;;6.70;99.90;;;;;;5033419;28;20186;-85
2021/04/02 03:44:57;;;;;;;12.03;8.83;;;6.70;99.90;;;;;;5009804;28;20934;-85
2021/04/02 03:47:29;;;;;;;11.67;8.30;;;6.80;99.90;;;;;;4997714;28;20496;-85
2021/04/02 03:50:12;;;;;;;17.17;9.70;;;6.70;99.90;;;;;;4997671;28;20501;-86
2021/04/02 03:52:44;;;;;;;14.13;9.60;;;6.60;99.90;;;;;;5004785;28;20908;-85
2021/04/02 03:55:17;;;;;;;17.20;8.33;;;6.70;99.90;;;;;;5049141;28;20429;-86
2021/04/02 03:57:47;;;;;;;16.10;7.73;;;6.70;99.90;;;;;;5007276;28;20556;-86
2021/04/02 04:00:22;;;;;;;14.87;9.07;;;6.70;99.90;;;;;;5014431;28;20438;-86
2021/04/02 04:03:01;;;;;;;12.43;8.10;;;6.80;99.90;;;;;;5036119;28;20447;-87
2021/04/02 04:05:30;;;;;;;12.80;8.23;;;6.80;99.90;;;;;;5005684;28;20181;-85
2021/04/02 04:07:59;;;;;;;14.53;7.80;;;6.80;99.90;;;;;;4985201;28;20967;-88
2021/04/02 04:10:26;;;;;;;14.20;8.33;;;6.80;99.90;;;;;;4997596;28;20450;-89
2021/04/02 04:12:58;;;;;;;10.43;9.00;;;6.80;99.90;;;;;;4997457;28;20443;-89
2021/04/02 04:15:28;;;;;;;15.63;8.30;;;6.80;99.90;;;;;;4998108;28;20849;-89
2021/04/02 04:17:58;;;;;;;12.30;8.63;;;6.90;99.90;;;;;;5007867;28;20470;-88
2021/04/02 04:20:26;;;;;;;15.43;9.00;;;6.90;99.90;;;;;;5016963;28;20417;-88
2021/04/02 04:23:10;;;;;;;10.40;8.10;;;6.90;99.90;;;;;;5017138;28;20441;-88
2021/04/02 04:25:42;;;;;;;11.97;7.80;;;7.00;99.90;;;;;;5012341;28;20433;-89
2021/04/02 04:28:11;;;;;;;14.37;8.33;;;7.00;99.90;;;;;;5009850;28;20438;-88
2021/04/02 04:30:41;;;;;;;17.40;9.30;;;6.90;99.90;;;;;;5015683;28;20832;-86
2021/04/02 04:33:07;;;;;;;10.40;8.53;;;6.80;99.90;;;;;;5000376;28;20471;-87
2021/04/02 04:35:35;;;;;;;12.40;8.23;;;6.80;99.90;;;;;;4990622;28;20927;-87
2021/04/02 04:38:04;;;;;;;17.00;9.23;;;6.90;99.90;;;;;;5004967;28;20467;-86
2021/04/02 04:40:32;;;;;;;16.60;10.13;;;6.80;99.90;;;;;;4984735;28;21013;-85
2021/04/02 04:43:01;;;;;;;13.67;8.83;;;6.70;99.90;;;;;;5000800;28;20415;-85
2021/04/02 04:45:29;;;;;;;17.23;9.73;;;6.80;99.90;;;;;;5000985;28;20429;-85
2021/04/02 04:47:55;;;;;;;18.57;10.97;;;6.60;99.90;;;;;;4989164;28;20426;-85
2021/04/02 04:50:21;;;;;;;15.70;10.20;;;6.40;99.90;;;;;;5000811;28;20888;-90
2021/04/02 04:53:00;;;;;;;14.50;10.48;;;6.30;99.90;;;;;;5014226;28;20438;-88
2021/04/02 04:55:30;;;;;;;17.33;12.47;;;6.20;99.90;;;;;;5021146;28;20180;-89
2021/04/02 04:57:59;;;;;;;19.25;12.43;;;6.30;99.90;;;;;;5037976;28;20554;-90
2021/04/02 05:00:31;;;;;;;25.77;13.80;;;6.20;99.90;;;;;;5034263;28;20222;-90
2021/04/02 05:02:59;;;;;;;21.60;13.25;;;6.20;99.90;;;;;;5034123;28;20663;-91
2021/04/02 05:05:32;;;;;;;23.45;13.80;;;6.20;99.90;;;;;;5008806;28;20241;-92
2021/04/02 05:08:01;;;;;;;31.15;16.10;;;6.20;99.90;;;;;;5004777;28;20236;-91
2021/04/02 05:10:32;;;;;;;35.88;18.73;;;6.10;99.90;;;;;;5037621;28;20602;-90
2021/04/02 05:13:02;;;;;;;55.97;24.45;;;6.10;99.90;;;;;;5020771;28;20516;-89
2021/04/02 05:15:30;;;;;;;39.90;20.55;;;6.10;99.90;;;;;;5037991;28;20184;-91
2021/04/02 05:17:58;;;;;;;38.97;17.15;;;6.00;99.90;;;;;;5024865;28;20596;-91
2021/04/02 05:20:44;;;;;;;37.03;17.83;;;6.10;99.90;;;;;;5001496;28;20268;-91
2021/04/02 05:23:12;;;;;;;39.28;17.17;;;6.00;99.90;;;;;;5017209;28;20525;-90
2021/04/02 05:25:41;;;;;;;39.60;16.30;;;6.10;99.90;;;;;;5000830;28;20242;-90
2021/04/02 05:28:10;;;;;;;36.95;17.13;;;6.10;99.90;;;;;;5017229;28;20484;-91
2021/04/02 05:30:38;;;;;;;36.87;18.20;;;6.20;99.90;;;;;;5001434;28;20214;-90
2021/04/02 05:33:05;;;;;;;24.77;14.90;;;6.20;99.90;;;;;;5020172;28;20472;-90
2021/04/02 05:35:36;;;;;;;41.17;18.97;;;6.20;99.90;;;;;;5020586;28;20189;-87
2021/04/02 05:38:04;;;;;;;37.30;18.92;;;6.20;99.90;;;;;;5004160;28;20551;-89
2021/04/02 05:40:33;;;;;;;42.27;21.00;;;6.30;99.90;;;;;;5036879;28;20611;-88
2021/04/02 05:43:13;;;;;;;47.33;20.50;;;6.30;99.90;;;;;;5000937;28;20444;-89
2021/04/02 05:45:47;;;;;;;53.00;24.10;;;6.30;99.90;;;;;;5000880;28;20417;-88
2021/04/02 05:48:17;;;;;;;49.70;20.85;;;6.20;99.90;;;;;;5016591;28;20467;-89
2021/04/02 05:50:43;;;;;;;45.55;22.33;;;6.30;99.90;;;;;;5000421;28;20225;-88
2021/04/02 05:53:11;;;;;;;41.92;20.58;;;6.30;99.90;;;;;;4984496;28;20189;-91
2021/04/02 05:55:42;;;;;;;36.57;18.60;;;6.20;99.90;;;;;;5000527;28;20494;-90
2021/04/02 05:58:13;;;;;;;30.93;16.57;;;6.20;99.90;;;;;;5002924;28;20482;-89
2021/04/02 06:00:40;;;;;;;39.30;21.23;;;6.20;99.90;;;;;;5033132;28;20461;-91
2021/04/02 06:03:09;;;;;;;45.70;21.27;;;6.20;99.90;;;;;;5019888;28;20420;-91
2021/04/02 06:05:36;;;;;;;45.70;22.67;;;6.10;99.90;;;;;;5000271;28;20208;-91
2021/04/02 06:08:03;;;;;;;46.38;23.67;;;6.10;99.90;;;;;;5002072;28;20433;-91
2021/04/02 06:10:34;;;;;;;47.97;25.53;;;6.10;99.90;;;;;;4984770;28;20189;-91
2021/04/02 06:13:00;;;;;;;51.80;24.25;;;6.20;99.90;;;;;;5000407;28;20421;-89
2021/04/02 06:15:32;;;;;;;44.50;23.45;;;6.30;99.90;;;;;;5000560;28;20735;-89
2021/04/02 06:18:08;;;;;;;45.25;25.70;;;6.30;99.90;;;;;;5000046;28;20510;-89
2021/04/02 06:20:34;;;;;;;42.10;24.50;;;6.30;99.90;;;;;;5016356;28;20516;-89
2021/04/02 06:23:07;;;;;;;55.30;27.43;;;6.30;99.90;;;;;;5016927;28;20429;-88
2021/04/02 06:25:36;;;;;;;50.60;26.87;;;6.40;99.90;;;;;;5016603;28;20750;-89
2021/04/02 06:28:16;;;;;;;52.53;25.70;;;6.50;99.90;;;;;;5031838;28;20433;-88
2021/04/02 06:30:42;;;;;;;47.93;26.80;;;6.60;99.90;;;;;;5036144;28;20427;-89
2021/04/02 06:33:10;;;;;;;51.65;31.00;;;6.60;99.90;;;;;;5035671;28;20475;-89
2021/04/02 06:35:40;;;;;;;56.03;26.93;;;6.70;99.90;;;;;;5036155;28;20259;-91
2021/04/02 06:38:09;;;;;;;55.72;28.65;;;6.70;99.90;;;;;;5036640;28;20448;-89
2021/04/02 06:40:38;;;;;;;40.53;26.03;;;6.70;99.90;;;;;;5052096;28;20261;-88
2021/04/02 06:43:07;;;;;;;56.50;29.20;;;6.80;99.90;;;;;;5036609;28;20756;-88
2021/04/02 06:45:33;;;;;;;50.10;28.13;;;6.80;99.90;;;;;;5035810;28;20207;-91
2021/04/02 06:48:10;;;;;;;59.90;32.20;;;6.80;99.90;;;;;;5019253;28;20497;-92
2021/04/02 06:50:37;;;;;;;51.07;29.17;;;6.80;99.90;;;;;;5043109;28;20441;-91
2021/04/02 06:53:11;;;;;;;52.07;30.60;;;6.90;99.90;;;;;;5002365;28;20436;-91
2021/04/02 06:55:40;;;;;;;59.23;31.47;;;7.00;99.90;;;;;;5035683;28;20415;-91
2021/04/02 06:58:11;;;;;;;54.73;31.97;;;7.10;99.90;;;;;;5023762;28;20472;-91
2021/04/02 07:00:40;;;;;;;51.53;30.70;;;7.10;99.90;;;;;;5041408;28;20492;-92
2021/04/02 07:03:07;;;;;;;58.17;33.97;;;7.30;99.90;;;;;;5020245;28;20747;-91
2021/04/02 07:05:34;;;;;;;61.43;35.53;;;7.30;99.90;;;;;;5039403;28;20424;-90
2021/04/02 07:08:08;;;;;;;63.03;34.90;;;7.30;99.90;;;;;;5038730;28;20442;-88
2021/04/02 07:10:38;;;;;;;62.00;35.37;;;7.10;99.90;;;;;;5052726;28;20768;-91
2021/04/02 07:13:05;;;;;;;54.87;32.93;;;7.10;99.90;;;;;;5038579;28;20412;-90
2021/04/02 07:15:33;;;;;;;59.00;35.50;;;7.20;99.90;;;;;;5038012;28;20559;-90
2021/04/02 07:18:04;;;;;;;56.97;35.53;;;7.30;99.90;;;;;;5022080;28;20553;-91
2021/04/02 07:20:36;;;;;;;58.37;35.30;;;7.40;99.90;;;;;;5051473;28;20446;-91
2021/04/02 07:23:03;;;;;;;54.80;34.83;;;7.50;99.90;;;;;;5031553;28;20411;-89
2021/04/02 07:25:33;;;;;;;57.77;34.80;;;7.60;99.90;;;;;;5014958;28;20830;-91
2021/04/02 07:28:01;;;;;;;59.50;34.40;;;7.70;99.90;;;;;;5003804;28;20431;-90
2021/04/02 07:30:30;;;;;;;50.77;30.87;;;7.70;99.90;;;;;;5031509;28;20433;-91
2021/04/02 07:33:06;;;;;;;50.87;32.57;;;7.70;99.90;;;;;;5053134;28;20998;-87
2021/04/02 07:35:35;;;;;;;59.00;32.57;;;7.70;99.90;;;;;;5055349;28;20417;-93
2021/04/02 07:38:04;;;;;;;48.90;31.80;;;7.70;99.90;;;;;;5055323;28;20466;-92
2021/04/02 07:40:36;;;;;;;56.60;30.20;;;7.60;99.90;;;;;;5055549;28;20430;-92
2021/04/02 07:43:07;;;;;;;64.43;33.17;;;7.60;99.90;;;;;;5038880;28;20408;-93
2021/04/02 07:45:35;;;;;;;48.83;31.53;;;7.60;99.90;;;;;;5055297;28;20451;-93
2021/04/02 07:48:22;;;;;;;53.40;32.80;;;7.60;99.90;;;;;;5024054;28;20784;-93
2021/04/02 07:50:50;;;;;;;44.47;29.63;;;7.60;99.90;;;;;;5032412;28;20517;-92
2021/04/02 07:53:18;;;;;;;50.13;29.37;;;7.50;99.90;;;;;;5050691;28;20440;-93
2021/04/02 07:55:55;;;;;;;39.07;26.90;;;7.50;99.90;;;;;;5035388;28;20430;-92
2021/04/02 07:58:27;;;;;;;40.70;27.30;;;7.50;99.90;;;;;;5020077;28;20468;-92
2021/04/02 08:00:55;;;;;;;42.73;27.37;;;7.50;99.90;;;;;;5019590;28;20473;-92
2021/04/02 08:03:31;;;;;;;47.10;27.47;;;7.50;99.90;;;;;;5015341;28;20500;-92
2021/04/02 08:07:00;;;;;;;41.30;27.00;;;7.50;99.90;;;;;;4992402;28;20426;-93
2021/04/02 08:09:26;;;;;;;52.43;32.57;;;7.50;99.90;;;;;;4998544;28;20424;-94
2021/04/02 08:12:00;;;;;;;61.60;37.17;;;7.70;99.90;;;;;;5015144;28;20957;-92
2021/04/02 08:14:36;;;;;;;59.00;36.17;;;7.70;99.90;;;;;;5015176;28;20781;-92
2021/04/02 08:17:08;;;;;;;59.63;34.90;;;7.70;99.90;;;;;;5023621;28;20424;-92
2021/04/02 08:23:42;;;;;;;54.73;36.80;;;7.90;99.90;;;;;;5033509;28;20426;-91
2021/04/02 08:26:13;;;;;;;55.90;36.03;;;8.00;99.90;;;;;;5043173;28;20767;-91
2021/04/02 08:28:41;;;;;;;59.83;32.90;;;8.00;99.90;;;;;;5034496;28;20914;-91
2021/04/02 08:31:07;;;;;;;51.50;32.70;;;8.00;99.90;;;;;;5050984;28;20488;-91
2021/04/02 08:33:33;;;;;;;50.37;33.00;;;8.00;99.90;;;;;;5034269;28;20466;-91
2021/04/02 08:35:59;;;;;;;47.73;29.63;;;8.00;99.90;;;;;;5034624;28;20423;-92
2021/04/02 08:38:30;;;;;;;46.73;30.93;;;8.00;99.90;;;;;;4999747;28;20486;-83
2021/04/02 08:41:16;;;;;;;49.07;31.90;;;8.10;99.90;;;;;;5035056;28;20464;-83
2021/04/02 08:43:42;;;;;;;50.07;33.37;;;8.10;99.90;;;;;;5034086;28;20437;-83
2021/04/02 08:46:16;;;;;;;51.30;32.80;;;8.10;99.90;;;;;;5031491;28;20438;-83
2021/04/02 08:48:46;;;;;;;52.13;34.33;;;8.10;99.90;;;;;;5021077;28;20433;-83
2021/04/02 08:51:21;;;;;;;48.67;31.03;;;8.10;99.90;;;;;;5033843;28;20438;-83
2021/04/02 08:53:49;;;;;;;47.60;32.77;;;8.00;99.90;;;;;;5033898;28;20453;-84
2021/04/02 08:56:17;;;;;;;49.40;33.00;;;8.10;99.90;;;;;;5028761;28;20433;-83
2021/04/02 08:58:44;;;;;;;50.17;32.33;;;8.10;99.90;;;;;;5029603;28;20493;-84
2021/04/02 09:01:12;;;;;;;51.60;32.57;;;8.10;99.90;;;;;;5027371;28;20862;-83
2021/04/02 09:03:42;;;;;;;50.53;33.40;;;8.20;99.90;;;;;;5031523;28;20429;-84
2021/04/02 09:06:11;;;;;;;51.60;33.60;;;8.20;99.90;;;;;;5038650;28;20424;-84
2021/04/02 09:08:40;;;;;;;47.50;32.63;;;8.20;99.90;;;;;;5031275;28;20437;-83
2021/04/02 09:11:11;;;;;;;48.67;34.00;;;8.20;99.90;;;;;;5024661;28;20436;-83
2021/04/02 09:13:43;;;;;;;49.37;33.10;;;8.20;99.90;;;;;;5027431;28;20505;-83
2021/04/02 09:16:11;;;;;;;48.93;33.97;;;8.20;99.90;;;;;;5026825;28;20429;-83
2021/04/02 09:18:49;;;;;;;51.40;33.50;;;8.10;99.90;;;;;;5032583;28;20819;-84
2021/04/02 09:21:17;;;;;;;44.33;30.17;;;8.20;99.90;;;;;;5036591;28;20422;-82
2021/04/02 09:23:49;;;;;;;42.90;28.63;;;8.20;99.90;;;;;;5039396;28;20411;-83
2021/04/02 09:26:16;;;;;;;39.80;28.13;;;8.20;99.90;;;;;;5043767;28;20488;-83
2021/04/02 09:28:45;;;;;;;40.83;28.23;;;8.10;99.90;;;;;;5036412;28;20792;-84
2021/04/02 09:31:22;;;;;;;39.50;28.10;;;8.00;99.90;;;;;;5035669;28;20526;-83
2021/04/02 09:33:54;;;;;;;40.50;26.57;;;8.10;99.90;;;;;;5036211;28;20472;-83
2021/04/02 09:36:21;;;;;;;36.47;25.77;;;8.10;99.90;;;;;;5035673;28;20549;-84
2021/04/02 09:38:49;;;;;;;39.07;24.33;;;8.20;99.90;;;;;;5031100;28;20861;-83
2021/04/02 09:41:23;;;;;;;36.23;24.17;;;8.20;99.90;;;;;;5046940;28;20948;-83
2021/04/02 09:43:51;;;;;;;29.20;20.57;;;8.20;99.90;;;;;;5028308;28;20934;-83
2021/04/02 09:46:31;;;;;;;29.00;19.83;;;8.20;99.90;;;;;;5025356;28;20412;-83
2021/04/02 09:49:03;;;;;;;26.80;17.70;;;8.20;99.90;;;;;;5021280;28;20431;-84
2021/04/02 09:51:30;;;;;;;32.80;22.00;;;8.10;99.90;;;;;;5030578;28;20426;-83
2021/04/02 09:53:56;;;;;;;37.70;24.27;;;8.10;99.90;;;;;;5035864;28;20965;-83
2021/04/02 09:56:21;;;;;;;29.07;21.87;;;8.00;99.90;;;;;;5029628;28;20430;-84
2021/04/02 09:58:47;;;;;;;17.73;13.63;;;8.10;99.90;;;;;;5027812;28;20474;-81
2021/04/02 10:01:14;;;;;;;14.33;9.53;;;8.30;99.90;;;;;;5033353;28;20451;-84
2021/04/02 10:03:40;;;;;;;14.93;10.30;;;8.40;99.90;;;;;;5031438;28;20960;-83
2021/04/02 10:06:21;;;;;;;11.13;8.63;;;8.50;99.90;;;;;;5032802;28;20507;-83
2021/04/02 10:08:48;;;;;;;12.97;9.20;;;8.70;99.90;;;;;;5035036;28;20533;-84
2021/04/02 10:11:14;;;;;;;14.33;10.40;;;8.80;99.90;;;;;;5034889;28;20454;-84
2021/04/02 10:13:40;;;;;;;10.47;8.90;;;8.90;99.90;;;;;;5035923;28;20423;-84
2021/04/02 10:16:08;;;;;;;12.30;9.90;;;9.00;99.90;;;;;;5029966;28;20512;-84
2021/04/02 10:18:38;;;;;;;16.77;10.13;;;9.00;99.90;;;;;;5033702;28;21006;-83
2021/04/02 10:21:08;;;;;;;17.77;10.70;;;9.10;99.90;;;;;;5036148;28;20515;-84
2021/04/02 10:23:37;;;;;;;14.90;10.80;;;9.10;99.90;;;;;;5034864;28;20434;-84
2021/04/02 10:26:03;;;;;;;11.83;9.57;;;8.90;99.90;;;;;;5033773;28;20823;-84
2021/04/02 10:28:39;;;;;;;11.90;9.90;;;8.90;99.90;;;;;;5032936;28;20435;-83
2021/04/02 10:31:08;;;;;;;11.50;9.40;;;9.00;99.90;;;;;;5049802;28;20519;-83
2021/04/02 10:33:36;;;;;;;11.90;9.20;;;8.80;99.90;;;;;;5038719;28;20945;-85
2021/04/02 10:36:03;;;;;;;17.40;12.07;;;8.70;99.90;;;;;;5035476;28;20432;-83
2021/04/02 10:38:31;;;;;;;47.77;29.40;;;8.70;99.90;;;;;;5046035;28;20835;-84
2021/04/02 10:40:57;;;;;;;41.50;25.10;;;8.70;99.90;;;;;;5034274;28;20788;-84
2021/04/02 10:43:25;;;;;;;38.17;23.23;;;8.60;99.90;;;;;;5033752;28;20512;-83
2021/04/02 10:45:54;;;;;;;25.93;17.30;;;8.80;99.90;;;;;;5034558;28;20496;-84
2021/04/02 10:48:20;;;;;;;28.40;18.60;;;8.80;99.90;;;;;;5019753;28;20443;-83
2021/04/02 10:50:52;;;;;;;28.90;17.67;;;9.00;99.90;;;;;;5025449;28;20445;-84
2021/04/02 10:53:18;;;;;;;24.23;16.63;;;9.00;99.90;;;;;;5021530;28;20438;-84
2021/04/02 10:55:46;;;;;;;20.30;15.40;;;9.10;99.90;;;;;;5032365;28;20846;-83
2021/04/02 10:58:15;;;;;;;22.33;16.50;;;9.10;99.90;;;;;;5021349;28;20471;-83
2021/04/02 11:00:41;;;;;;;28.13;18.73;;;9.10;99.90;;;;;;5026670;28;20463;-83
2021/04/02 11:03:08;;;;;;;39.43;26.00;;;9.10;99.90;;;;;;5036362;28;20454;-83
2021/04/02 11:05:38;;;;;;;36.80;26.00;;;9.00;99.90;;;;;;5039691;28;20427;-83
2021/04/02 11:08:05;;;;;;;41.40;29.30;;;9.00;99.90;;;;;;5031912;28;20435;-83
2021/04/02 11:10:34;;;;;;;40.47;29.97;;;8.90;99.90;;;;;;5049528;28;20975;-84
2021/04/02 11:13:02;;;;;;;46.17;29.90;;;8.90;99.90;;;;;;5013678;28;20788;-85
2021/04/02 11:15:28;;;;;;;38.50;26.83;;;8.90;99.90;;;;;;5026534;28;20442;-84
2021/04/02 11:17:54;;;;;;;38.47;25.27;;;8.80;99.90;;;;;;5031950;28;20787;-84
2021/04/02 11:20:25;;;;;;;34.90;22.43;;;8.80;99.90;;;;;;5031494;28;20465;-83
2021/04/02 11:22:53;;;;;;;30.17;18.70;;;8.70;99.90;;;;;;5026338;28;20416;-84
2021/04/02 11:25:22;;;;;;;29.97;19.90;;;8.60;99.90;;;;;;5024094;28;20465;-85
2021/04/02 11:27:48;;;;;;;32.80;22.77;;;8.60;99.90;;;;;;5018555;28;20435;-85
2021/04/02 11:30:20;;;;;;;32.07;23.03;;;8.60;99.90;;;;;;5007069;28;20493;-84
2021/04/02 11:32:46;;;;;;;24.57;17.90;;;8.60;99.90;;;;;;5034410;28;20494;-84
2021/04/02 11:35:14;;;;;;;20.17;14.90;;;8.60;99.90;;;;;;5032088;28;20786;-84
2021/04/02 11:37:40;;;;;;;22.10;15.30;;;8.60;99.90;;;;;;5023888;28;20463;-83
2021/04/02 11:40:10;;;;;;;24.50;15.83;;;8.70;99.90;;;;;;5015484;28;20481;-83
2021/04/02 11:42:37;;;;;;;22.07;15.17;;;8.70;99.90;;;;;;5032266;28;20427;-84
2021/04/02 11:45:08;;;;;;;24.47;14.93;;;8.80;99.90;;;;;;5029193;28;20466;-83
2021/04/02 11:47:37;;;;;;;17.33;9.23;;;8.80;99.90;;;;;;5019279;28;20438;-84
2021/04/02 11:50:09;;;;;;;10.23;9.20;;;8.70;99.90;;;;;;5010122;28;20451;-84
2021/04/02 11:52:39;;;;;;;12.03;8.83;;;8.60;99.90;;;;;;5033016;28;20435;-84
2021/04/02 11:55:11;;;;;;;12.03;9.80;;;8.60;99.90;;;;;;5025883;28;20456;-84
2021/04/02 11:57:39;;;;;;;14.77;10.87;;;8.70;99.90;;;;;;5032080;28;20943;-84
2021/04/02 12:00:10;;;;;;;13.27;10.40;;;8.70;99.90;;;;;;5032230;28;20423;-83
2021/04/02 12:02:41;;;;;;;16.93;10.30;;;8.70;99.90;;;;;;5032769;28;20438;-84
2021/04/02 12:05:08;;;;;;;13.10;10.10;;;8.70;99.90;;;;;;5053020;28;20433;-83
2021/04/02 12:07:39;;;;;;;16.47;11.27;;;8.60;99.90;;;;;;5051140;28;20447;-83
2021/04/02 12:10:08;;;;;;;12.20;9.90;;;8.70;99.90;;;;;;5023373;28;20498;-83
2021/04/02 12:12:35;;;;;;;9.83;8.87;;;8.80;99.90;;;;;;5019767;28;20447;-83
2021/04/02 12:15:03;;;;;;;9.77;8.60;;;8.90;99.90;;;;;;5027015;28;20451;-82
2021/04/02 12:18:04;;;;;;;9.63;8.13;;;9.10;99.90;;;;;;5029864;28;20474;-84
2021/04/02 12:20:35;;;;;;;10.90;8.40;;;9.30;99.90;;;;;;5031189;28;20514;-84
2021/04/02 12:23:04;;;;;;;11.73;8.60;;;9.10;99.90;;;;;;5033313;28;20983;-82
2021/04/02 12:25:31;;;;;;;10.43;8.53;;;9.20;99.80;;;;;;5023243;28;20458;-83
2021/04/02 12:27:56;;;;;;;10.60;8.37;;;9.30;99.80;;;;;;5025396;28;20441;-84
2021/04/02 12:30:23;;;;;;;8.03;6.23;;;9.40;99.60;;;;;;5021130;28;20793;-82
2021/04/02 12:32:51;;;;;;;12.10;8.13;;;9.50;98.70;;;;;;5028476;28;20570;-84
2021/04/02 12:35:19;;;;;;;7.80;7.00;;;9.40;97.40;;;;;;5026338;28;20724;-83
2021/04/02 12:37:51;;;;;;;11.27;6.90;;;9.60;96.90;;;;;;5024563;28;20494;-83
2021/04/02 12:40:22;;;;;;;9.23;6.63;;;9.80;97.30;;;;;;5024243;28;20425;-82
2021/04/02 12:42:49;;;;;;;10.63;9.20;;;10.00;96.40;;;;;;5025919;28;20436;-83
2021/04/02 12:45:15;;;;;;;10.70;9.00;;;10.10;95.30;;;;;;5024718;28;20428;-83
2021/04/02 12:47:45;;;;;;;10.93;8.27;;;10.40;94.80;;;;;;5042024;28;20467;-83
2021/04/02 12:50:19;;;;;;;11.77;9.40;;;10.50;94.40;;;;;;5025275;28;20425;-84
2021/04/02 12:52:51;;;;;;;9.97;8.57;;;10.20;93.50;;;;;;5030062;28;20423;-83
2021/04/02 12:55:19;;;;;;;16.00;8.40;;;10.30;94.30;;;;;;5036212;28;20750;-83
2021/04/02 12:57:56;;;;;;;12.73;8.40;;;10.50;94.60;;;;;;5032328;28;20529;-83
2021/04/02 13:00:25;;;;;;;9.27;7.40;;;10.70;93.60;;;;;;5037138;28;20400;-83
2021/04/02 13:02:52;;;;;;;7.60;6.90;;;11.00;93.20;;;;;;5038860;28;20428;-83
2021/04/02 13:05:20;;;;;;;7.97;6.87;;;11.10;92.50;;;;;;5056140;28;20429;-83